Time;durP1;ratioP1;P1;durP2;ratioP2;P2;SDS_P1;SDS_P2;PMS_P1;PMS_P2;Temp;Humidity;BMP_temperature;BMP_pressure;BME280_temperature;BME280_humidity;BME280_pressure;Samples;Min_cycle;Max_cycle;Signal;HPM_P1;HPM_P2
2023/01/04 00:02:17;;;;;;;12.02;5.30;;;4.70;85.20;;;;;;5064676;28;20123;-70
2023/01/04 00:04:44;;;;;;;12.13;5.47;;;4.70;85.30;;;;;;5067769;28;20053;-70
2023/01/04 00:07:12;;;;;;;14.00;6.18;;;4.70;85.20;;;;;;5068753;28;20048;-64
2023/01/04 00:09:40;;;;;;;10.95;5.50;;;4.70;85.30;;;;;;5067799;28;20067;-63
2023/01/04 00:12:08;;;;;;;13.50;6.20;;;4.70;85.30;;;;;;5068356;28;20114;-63
2023/01/04 00:14:42;;;;;;;12.52;5.85;;;4.70;85.40;;;;;;5067043;28;20094;-67
2023/01/04 00:17:08;;;;;;;14.85;6.68;;;4.60;85.50;;;;;;5067954;28;20059;-68
2023/01/04 00:19:35;;;;;;;13.32;5.70;;;4.60;85.70;;;;;;5065582;28;20123;-68
2023/01/04 00:22:02;;;;;;;13.60;6.45;;;4.50;85.80;;;;;;5068353;28;20041;-62
2023/01/04 00:24:32;;;;;;;12.57;6.00;;;4.60;85.70;;;;;;5067875;28;20056;-63
2023/01/04 00:26:59;;;;;;;11.20;5.13;;;4.60;85.90;;;;;;5047543;28;20538;-61
2023/01/04 00:29:26;;;;;;;11.18;5.75;;;4.70;85.60;;;;;;5067903;28;20071;-61
2023/01/04 00:31:53;;;;;;;12.70;5.60;;;4.60;85.70;;;;;;5067105;28;20045;-58
2023/01/04 00:34:20;;;;;;;9.57;4.63;;;4.60;85.90;;;;;;5067310;28;20832;-59
2023/01/04 00:36:47;;;;;;;11.00;4.85;;;4.60;85.90;;;;;;5067107;28;20051;-59
2023/01/04 00:39:15;;;;;;;9.55;4.65;;;4.50;85.90;;;;;;5066922;28;20048;-59
2023/01/04 00:41:45;;;;;;;9.27;4.03;;;4.50;85.80;;;;;;5067359;28;20048;-58
2023/01/04 00:44:12;;;;;;;8.35;4.45;;;4.50;85.80;;;;;;5061720;28;20045;-59
2023/01/04 00:46:40;;;;;;;11.32;4.72;;;4.40;85.70;;;;;;5059125;28;20055;-59
2023/01/04 00:49:08;;;;;;;8.85;4.57;;;4.40;85.90;;;;;;5058650;28;20041;-59
2023/01/04 00:51:37;;;;;;;9.55;4.53;;;4.40;85.90;;;;;;5041140;28;20148;-59
2023/01/04 00:54:06;;;;;;;10.40;5.18;;;4.30;86.00;;;;;;5058604;28;20037;-59
2023/01/04 00:56:33;;;;;;;9.38;5.10;;;4.40;86.20;;;;;;5058727;28;20052;-60
2023/01/04 00:59:04;;;;;;;11.52;5.53;;;4.40;86.20;;;;;;5059711;28;20543;-58
2023/01/04 01:01:32;;;;;;;13.30;5.70;;;4.40;86.10;;;;;;5058814;28;20049;-59
2023/01/04 01:04:01;;;;;;;10.55;5.35;;;4.30;86.20;;;;;;5059213;28;20067;-60
2023/01/04 01:06:30;;;;;;;9.23;4.82;;;4.30;86.30;;;;;;5059719;28;20063;-60
2023/01/04 01:08:58;;;;;;;11.38;5.65;;;4.20;86.50;;;;;;5059784;28;20056;-58
2023/01/04 01:11:25;;;;;;;8.98;4.95;;;4.30;86.50;;;;;;5059199;28;20134;-58
2023/01/04 01:13:52;;;;;;;10.20;5.20;;;4.30;86.50;;;;;;5059616;28;20049;-59
2023/01/04 01:16:23;;;;;;;7.22;4.28;;;4.20;86.40;;;;;;5059495;28;20494;-57
2023/01/04 01:18:50;;;;;;;;;;;4.20;86.40;;;;;;5060103;28;20055;-58
2023/01/04 01:21:20;;;;;;;8.57;4.13;;;4.30;86.40;;;;;;5059971;28;19928;-58
2023/01/04 01:23:47;;;;;;;7.68;3.70;;;4.20;86.30;;;;;;5058724;28;20123;-59
2023/01/04 01:26:16;;;;;;;7.97;3.63;;;4.20;86.20;;;;;;5059156;28;20049;-59
2023/01/04 01:28:44;;;;;;;6.43;2.97;;;4.20;86.10;;;;;;5059072;28;20136;-60
2023/01/04 01:31:13;;;;;;;6.63;3.53;;;4.20;86.10;;;;;;5057762;28;20049;-59
2023/01/04 01:33:44;;;;;;;8.45;3.60;;;4.10;86.10;;;;;;5057445;28;20053;-59
2023/01/04 01:36:12;;;;;;;6.95;3.30;;;4.00;86.30;;;;;;5059260;28;20040;-59
2023/01/04 01:38:41;;;;;;;8.10;3.53;;;4.10;86.30;;;;;;5058671;28;20064;-58
2023/01/04 01:41:15;;;;;;;7.72;3.83;;;4.00;86.30;;;;;;5058761;28;20095;-59
2023/01/04 01:43:54;;;;;;;8.18;3.95;;;4.00;86.40;;;;;;5060009;28;20110;-58
2023/01/04 01:46:26;;;;;;;9.52;4.53;;;4.00;86.50;;;;;;5058896;28;20040;-58
2023/01/04 01:48:58;;;;;;;7.28;3.60;;;4.10;86.50;;;;;;5057346;28;20107;-59
2023/01/04 01:51:26;;;;;;;9.35;3.95;;;4.00;86.20;;;;;;5058615;28;20052;-58
2023/01/04 01:53:58;;;;;;;8.40;3.60;;;3.90;86.30;;;;;;5058572;28;20048;-60
2023/01/04 01:56:28;;;;;;;9.00;4.28;;;3.90;86.20;;;;;;5058898;28;20128;-58
2023/01/04 01:58:57;;;;;;;8.40;3.63;;;3.90;86.00;;;;;;5056962;28;20913;-58
2023/01/04 02:01:24;;;;;;;8.02;4.05;;;3.90;85.90;;;;;;5059251;28;20057;-58
2023/01/04 02:03:51;;;;;;;7.32;4.03;;;4.00;85.80;;;;;;5055598;28;20063;-59
2023/01/04 02:06:25;;;;;;;6.95;3.58;;;4.00;85.80;;;;;;5057755;28;20041;-59
2023/01/04 02:08:52;;;;;;;7.15;3.92;;;3.90;85.80;;;;;;5056942;28;20045;-59
2023/01/04 02:11:19;;;;;;;9.07;3.90;;;4.00;85.90;;;;;;5057022;28;20045;-58
2023/01/04 02:16:46;;;;;;;8.02;4.13;;;4.00;85.80;;;;;;5058467;28;20061;-58
2023/01/04 02:19:56;;;;;;;7.45;3.60;;;3.90;85.70;;;;;;5057547;28;20152;-59
2023/01/04 02:23:09;;;;;;;7.00;3.75;;;3.90;85.60;;;;;;5051881;28;20052;-58
2023/01/04 02:26:13;;;;;;;8.27;4.47;;;3.90;85.60;;;;;;5029621;28;20048;-59
2023/01/04 02:29:07;;;;;;;7.88;4.13;;;3.80;85.50;;;;;;5058322;28;20521;-59
2023/01/04 02:31:39;;;;;;;8.85;4.15;;;3.80;85.50;;;;;;5056299;28;20045;-61
2023/01/04 02:34:16;;;;;;;8.43;4.00;;;3.80;85.40;;;;;;5057331;28;20040;-59
2023/01/04 02:36:52;;;;;;;6.55;3.63;;;3.80;85.40;;;;;;5056900;28;20422;-58
2023/01/04 02:39:33;;;;;;;7.68;3.83;;;3.80;85.20;;;;;;5057234;28;20056;-59
2023/01/04 02:42:07;;;;;;;7.93;4.43;;;3.70;85.30;;;;;;5056867;28;20490;-59
2023/01/04 02:44:52;;;;;;;7.28;3.70;;;3.80;85.30;;;;;;5041126;28;20504;-61
2023/01/04 02:50:31;;;;;;;7.40;3.65;;;3.70;85.20;;;;;;5036920;28;20049;-59
2023/01/04 02:52:59;;;;;;;9.05;3.88;;;3.70;85.20;;;;;;5039245;28;20973;-59
2023/01/04 02:55:37;;;;;;;5.55;3.33;;;3.70;85.20;;;;;;5040638;28;20083;-58
2023/01/04 02:58:12;;;;;;;6.85;3.67;;;3.70;85.20;;;;;;5039393;28;20667;-58
2023/01/04 03:06:48;;;;;;;6.40;3.58;;;3.60;85.10;;;;;;5041095;28;20044;-59
2023/01/04 03:09:20;;;;;;;6.82;3.30;;;3.60;85.30;;;;;;5037169;28;20056;-59
2023/01/04 03:14:41;;;;;;;9.93;3.92;;;3.60;85.20;;;;;;5040507;28;20139;-59
2023/01/04 03:17:13;;;;;;;8.75;4.05;;;3.60;85.10;;;;;;5036520;28;20045;-59
2023/01/04 03:19:53;;;;;;;8.13;3.63;;;3.60;85.20;;;;;;5039041;28;20053;-60
2023/01/04 03:36:28;;;;;;;;;;;3.70;85.90;;;;;;5017703;28;20060;-58
2023/01/04 03:50:23;;;;;;;5.35;2.88;;;3.80;86.60;;;;;;5045857;28;20497;-59
2023/01/04 03:52:53;;;;;;;6.03;2.92;;;3.80;86.70;;;;;;5044537;28;20101;-59
2023/01/04 03:55:21;;;;;;;8.52;3.30;;;3.80;86.70;;;;;;5046082;28;20037;-59
2023/01/04 03:57:51;;;;;;;6.03;2.80;;;3.80;86.80;;;;;;5036910;28;20045;-59
2023/01/04 04:00:19;;;;;;;7.38;3.70;;;3.90;86.80;;;;;;5038909;28;20140;-60
2023/01/04 04:02:47;;;;;;;6.22;3.28;;;3.90;86.80;;;;;;5043422;28;20573;-60
2023/01/04 04:10:48;;;;;;;6.80;3.40;;;3.90;87.10;;;;;;5041183;28;20678;-60
2023/01/04 04:13:14;;;;;;;9.95;4.20;;;3.90;87.10;;;;;;5044420;28;20151;-59
2023/01/04 04:15:41;;;;;;;8.82;4.32;;;4.00;87.00;;;;;;5040141;28;20048;-58
2023/01/04 04:18:08;;;;;;;8.05;3.85;;;4.00;87.10;;;;;;5046466;28;20049;-59
2023/01/04 04:20:35;;;;;;;8.18;3.67;;;4.00;87.30;;;;;;5048180;28;20048;-60
2023/01/04 04:23:04;;;;;;;6.97;3.75;;;4.00;87.30;;;;;;5047586;28;20055;-59
2023/01/04 04:25:31;;;;;;;8.90;3.88;;;4.00;87.30;;;;;;5047443;28;20053;-60
2023/01/04 04:27:58;;;;;;;7.35;3.22;;;4.00;87.60;;;;;;5046528;28;20052;-59
2023/01/04 04:30:24;;;;;;;7.47;3.80;;;4.10;87.60;;;;;;5049096;28;20471;-59
2023/01/04 04:32:51;;;;;;;6.07;3.22;;;4.20;87.50;;;;;;5050734;28;20044;-59
2023/01/04 04:35:18;;;;;;;7.13;3.53;;;4.10;87.60;;;;;;5050009;28;20041;-57
2023/01/04 04:37:45;;;;;;;6.97;3.20;;;4.20;87.70;;;;;;5031807;28;20052;-60
2023/01/04 04:41:37;;;;;;;6.25;3.08;;;4.20;87.50;;;;;;5051448;28;20045;-60
2023/01/04 04:43:07;;;;;;;7.22;3.03;;;4.20;87.60;;;;;;5048375;28;20060;-58
2023/01/04 04:45:34;;;;;;;7.03;3.13;;;4.20;87.70;;;;;;5056715;28;20059;-59
2023/01/04 04:48:01;;;;;;;6.25;2.80;;;4.20;87.80;;;;;;5057073;28;20044;-59
2023/01/04 04:50:30;;;;;;;7.85;2.85;;;4.30;87.80;;;;;;5058801;28;20036;-59
2023/01/04 04:52:57;;;;;;;7.75;3.25;;;4.30;87.70;;;;;;5050110;28;20115;-59
2023/01/04 04:55:25;;;;;;;4.88;2.50;;;4.30;87.80;;;;;;5058030;28;20064;-58
2023/01/04 04:57:52;;;;;;;6.53;3.05;;;4.30;88.00;;;;;;5055682;28;20055;-58
2023/01/04 05:00:19;;;;;;;7.75;3.00;;;4.30;88.00;;;;;;5057629;28;20052;-59
2023/01/04 05:02:46;;;;;;;5.95;2.67;;;4.30;88.10;;;;;;5054888;28;20132;-58
2023/01/04 05:05:15;;;;;;;7.53;3.08;;;4.40;88.10;;;;;;5057652;28;20056;-59
2023/01/04 05:07:42;;;;;;;5.70;2.53;;;4.40;88.10;;;;;;5057743;28;20060;-59
2023/01/04 05:10:10;;;;;;;6.20;3.08;;;4.50;88.10;;;;;;5057187;28;20044;-59
2023/01/04 05:15:22;;;;;;;5.10;2.13;;;4.60;89.00;;;;;;5056805;28;20048;-58
2023/01/04 05:17:49;;;;;;;6.43;2.25;;;4.70;88.90;;;;;;5057872;28;20132;-59
2023/01/04 05:20:16;;;;;;;7.50;2.60;;;4.80;89.10;;;;;;5060792;28;20041;-59
2023/01/04 05:22:44;;;;;;;6.47;2.40;;;4.80;89.00;;;;;;5057337;28;20407;-59
2023/01/04 05:25:11;;;;;;;5.30;2.50;;;4.80;89.10;;;;;;5057641;28;20536;-59
2023/01/04 05:27:40;;;;;;;3.42;1.98;;;4.90;89.20;;;;;;5058975;28;20060;-59
2023/01/04 05:32:52;;;;;;;4.85;1.83;;;5.00;90.00;;;;;;5058751;28;20114;-59
2023/01/04 05:35:19;;;;;;;4.28;1.60;;;5.20;90.70;;;;;;5058380;28;20094;-59
2023/01/04 05:37:46;;;;;;;3.47;1.38;;;5.20;90.80;;;;;;5057740;28;20045;-58
2023/01/04 05:40:13;;;;;;;6.03;1.60;;;5.30;91.10;;;;;;5058971;28;20052;-59
2023/01/04 05:42:41;;;;;;;4.32;1.40;;;5.40;90.80;;;;;;5056473;28;20068;-58
2023/01/04 05:45:08;;;;;;;4.22;1.27;;;5.40;91.00;;;;;;5059439;28;20048;-59
2023/01/04 05:47:35;;;;;;;4.70;1.52;;;5.50;91.20;;;;;;5055973;28;20063;-58
2023/01/04 05:50:03;;;;;;;4.93;1.10;;;5.50;91.10;;;;;;5057768;28;20059;-58
2023/01/04 05:52:30;;;;;;;2.85;1.10;;;5.60;91.30;;;;;;5057344;28;20533;-59
2023/01/04 05:54:57;;;;;;;4.55;1.17;;;5.60;91.30;;;;;;5053509;28;20044;-59
2023/01/04 05:57:24;;;;;;;4.60;1.40;;;5.70;91.10;;;;;;5058034;28;20167;-59
2023/01/04 05:59:52;;;;;;;3.40;1.48;;;5.70;91.00;;;;;;5057516;28;20049;-58
2023/01/04 06:02:21;;;;;;;4.68;1.77;;;5.70;91.10;;;;;;5057035;28;20056;-59
2023/01/04 06:04:48;;;;;;;4.07;1.75;;;5.80;91.20;;;;;;5056672;28;20041;-59
2023/01/04 06:07:15;;;;;;;4.95;1.48;;;5.80;91.10;;;;;;5057228;28;20380;-59
2023/01/04 06:09:43;;;;;;;4.30;1.75;;;5.80;91.10;;;;;;5056565;28;20049;-58
2023/01/04 06:12:10;;;;;;;4.05;1.15;;;5.80;90.90;;;;;;5053487;28;20068;-59
2023/01/04 06:14:37;;;;;;;4.57;1.25;;;5.90;91.00;;;;;;5054220;28;20052;-58
2023/01/04 06:17:05;;;;;;;5.47;1.23;;;5.90;91.10;;;;;;5054164;28;20052;-59
2023/01/04 06:19:32;;;;;;;3.20;1.55;;;5.90;90.90;;;;;;5057021;28;20045;-58
2023/01/04 06:22:00;;;;;;;5.47;1.30;;;5.90;90.80;;;;;;5057544;28;20045;-58
2023/01/04 06:24:27;;;;;;;3.00;1.40;;;6.00;91.00;;;;;;5056951;28;20095;-57
2023/01/04 06:26:53;;;;;;;3.90;1.13;;;6.00;90.90;;;;;;5055012;28;20444;-59
2023/01/04 06:29:20;;;;;;;4.13;1.42;;;6.10;90.90;;;;;;5055715;28;20073;-59
2023/01/04 06:31:47;;;;;;;3.28;0.90;;;6.10;90.90;;;;;;5055899;28;20063;-58
2023/01/04 06:34:15;;;;;;;3.00;1.20;;;6.10;91.10;;;;;;5055983;28;20099;-58
2023/01/04 06:36:43;;;;;;;3.08;1.15;;;6.10;90.90;;;;;;5056602;28;20044;-58
2023/01/04 06:39:10;;;;;;;5.18;1.27;;;6.10;90.90;;;;;;5056702;28;20052;-59
2023/01/04 06:41:37;;;;;;;3.35;1.23;;;6.10;91.00;;;;;;5057491;28;20049;-59
2023/01/04 06:44:05;;;;;;;4.28;1.30;;;6.20;90.90;;;;;;5058517;28;20087;-57
2023/01/04 06:46:32;;;;;;;3.55;1.23;;;6.20;90.80;;;;;;5052112;28;20968;-59
2023/01/04 06:48:58;;;;;;;5.75;1.10;;;6.20;90.80;;;;;;5055372;28;20052;-59
2023/01/04 06:51:27;;;;;;;3.65;1.05;;;6.20;90.80;;;;;;5053884;28;20045;-58
2023/01/04 06:53:53;;;;;;;3.85;1.08;;;6.20;90.70;;;;;;5055865;28;20053;-57
2023/01/04 06:56:21;;;;;;;3.38;1.38;;;6.20;90.60;;;;;;5058189;28;20081;-58
2023/01/04 06:58:48;;;;;;;3.42;1.23;;;6.20;90.60;;;;;;5056022;28;20434;-60
2023/01/04 07:01:15;;;;;;;3.42;1.40;;;6.30;90.60;;;;;;5053978;28;20056;-58
2023/01/04 07:03:41;;;;;;;2.80;1.05;;;6.30;90.50;;;;;;5055776;28;20053;-57
2023/01/04 07:06:09;;;;;;;3.55;1.10;;;6.30;90.40;;;;;;5057086;28;20056;-59
2023/01/04 07:08:37;;;;;;;3.67;1.20;;;6.30;90.30;;;;;;5055791;28;20135;-58
2023/01/04 07:11:06;;;;;;;4.20;1.58;;;6.30;90.30;;;;;;5049613;28;20098;-59
2023/01/04 07:13:32;;;;;;;5.00;1.30;;;6.40;90.20;;;;;;5055550;28;20052;-61
2023/01/04 07:15:59;;;;;;;3.42;1.23;;;6.30;90.10;;;;;;5051137;28;20087;-58
2023/01/04 07:18:26;;;;;;;4.43;1.60;;;6.30;90.20;;;;;;5055431;28;21000;-58
2023/01/04 07:20:53;;;;;;;3.85;1.45;;;6.30;90.20;;;;;;5053956;28;20068;-58
2023/01/04 07:23:20;;;;;;;7.28;1.75;;;6.40;90.10;;;;;;5056258;28;20143;-59
2023/01/04 07:25:49;;;;;;;2.58;1.25;;;6.40;90.10;;;;;;5057403;28;20052;-59
2023/01/04 07:29:13;;;;;;;3.92;1.40;;;6.40;90.00;;;;;;5057041;28;20048;-58
2023/01/04 07:31:07;;;;;;;3.60;1.40;;;6.40;89.90;;;;;;5056070;28;20080;-58
2023/01/04 07:33:35;;;;;;;2.50;1.10;;;6.40;90.00;;;;;;5052755;28;20053;-58
2023/01/04 07:36:03;;;;;;;4.07;1.48;;;6.40;89.90;;;;;;5057897;28;20132;-59
2023/01/04 07:38:30;;;;;;;3.63;1.48;;;6.50;89.90;;;;;;5055594;28;20052;-59
2023/01/04 07:40:58;;;;;;;3.10;1.45;;;6.40;89.80;;;;;;5054810;28;20040;-59
2023/01/04 07:43:25;;;;;;;3.40;1.33;;;6.50;89.70;;;;;;5056443;28;20068;-59
2023/01/04 07:45:53;;;;;;;4.78;1.83;;;6.50;89.80;;;;;;5056224;28;20415;-60
2023/01/04 07:48:19;;;;;;;4.22;1.67;;;6.50;89.80;;;;;;5056197;28;20499;-59
2023/01/04 07:50:46;;;;;;;4.85;1.48;;;6.50;89.70;;;;;;5056345;28;20053;-58
2023/01/04 07:53:13;;;;;;;5.35;2.03;;;6.50;89.70;;;;;;5058742;28;20051;-59
2023/01/04 07:55:40;;;;;;;2.88;1.60;;;6.60;89.70;;;;;;5055965;28;20060;-58
2023/01/04 07:58:12;;;;;;;3.58;1.60;;;6.60;89.60;;;;;;5060757;28;20040;-59
2023/01/04 08:00:39;;;;;;;4.82;1.90;;;6.60;89.60;;;;;;5059184;28;20139;-58
2023/01/04 08:03:06;;;;;;;5.35;1.85;;;6.50;89.50;;;;;;5059277;28;20036;-59
2023/01/04 08:05:34;;;;;;;4.45;1.70;;;6.60;89.50;;;;;;5060239;28;20049;-60
2023/01/04 08:08:01;;;;;;;4.35;2.13;;;6.60;89.50;;;;;;5059665;28;20811;-58
2023/01/04 08:10:29;;;;;;;5.00;1.90;;;6.60;89.50;;;;;;5058503;28;20049;-59
2023/01/04 08:12:58;;;;;;;4.45;1.80;;;6.60;89.40;;;;;;5058091;28;20052;-58
2023/01/04 08:15:27;;;;;;;5.60;2.00;;;6.60;89.40;;;;;;5061045;28;20113;-60
2023/01/04 08:17:56;;;;;;;4.80;2.10;;;6.60;89.30;;;;;;5059675;28;20051;-58
2023/01/04 08:20:23;;;;;;;4.30;2.05;;;6.60;89.20;;;;;;5059935;28;20041;-59
2023/01/04 08:22:50;;;;;;;4.38;1.77;;;6.70;89.10;;;;;;5054748;28;20045;-59
2023/01/04 08:25:17;;;;;;;6.03;2.33;;;6.70;89.10;;;;;;5057906;28;20045;-58
2023/01/04 08:27:43;;;;;;;4.63;1.88;;;6.70;89.20;;;;;;5060441;28;20425;-59
2023/01/04 08:30:11;;;;;;;4.78;1.70;;;6.70;89.10;;;;;;5057686;28;20049;-58
2023/01/04 08:32:39;;;;;;;5.10;2.17;;;6.70;89.00;;;;;;5058958;28;20487;-58
2023/01/04 08:35:07;;;;;;;5.88;1.98;;;6.80;89.10;;;;;;5057849;28;20044;-58
2023/01/04 08:37:35;;;;;;;4.35;1.77;;;6.80;89.10;;;;;;5059585;28;20463;-59
2023/01/04 08:40:02;;;;;;;4.47;1.63;;;6.80;89.00;;;;;;5059083;28;20050;-58
2023/01/04 08:42:29;;;;;;;5.50;1.90;;;6.80;89.00;;;;;;5061669;28;20056;-58
2023/01/04 08:44:57;;;;;;;3.63;1.58;;;6.80;89.00;;;;;;5069624;28;20052;-58
2023/01/04 08:47:24;;;;;;;4.60;1.70;;;6.90;89.00;;;;;;5068189;28;20084;-57
2023/01/04 08:49:52;;;;;;;4.22;1.90;;;6.90;88.90;;;;;;5070084;28;20056;-58
2023/01/04 08:52:19;;;;;;;4.50;1.80;;;6.90;88.90;;;;;;5064125;28;20052;-59
2023/01/04 08:54:46;;;;;;;4.75;1.85;;;6.90;89.00;;;;;;5067566;28;20052;-59
2023/01/04 08:57:12;;;;;;;4.45;1.52;;;6.90;89.00;;;;;;5070539;28;20041;-59
2023/01/04 08:59:39;;;;;;;3.17;1.60;;;7.00;88.90;;;;;;5070681;28;20044;-59
2023/01/04 09:02:18;;;;;;;4.70;1.77;;;7.00;89.00;;;;;;5070927;28;20044;-58
2023/01/04 09:04:45;;;;;;;4.03;1.42;;;7.00;89.00;;;;;;5068780;28;20048;-59
2023/01/04 09:07:13;;;;;;;4.07;1.63;;;7.00;89.00;;;;;;5070072;28;20387;-60
2023/01/04 09:09:41;;;;;;;4.07;1.60;;;7.00;88.90;;;;;;5070880;28;20048;-58
2023/01/04 09:12:08;;;;;;;4.28;1.55;;;7.00;89.00;;;;;;5070533;28;20495;-59
2023/01/04 09:14:35;;;;;;;3.78;1.30;;;7.10;89.00;;;;;;5068491;28;20953;-58
2023/01/04 09:17:02;;;;;;;3.60;1.40;;;7.10;89.10;;;;;;5070472;28;20102;-58
2023/01/04 09:19:29;;;;;;;2.78;1.33;;;7.20;89.00;;;;;;5070737;28;20044;-58
2023/01/04 09:21:56;;;;;;;3.55;1.30;;;7.20;89.00;;;;;;5062634;28;20106;-58
2023/01/04 09:24:24;;;;;;;3.08;1.05;;;7.20;89.00;;;;;;5070667;28;20044;-58
2023/01/04 09:26:51;;;;;;;3.55;1.23;;;7.20;89.00;;;;;;5068359;28;20063;-59
2023/01/04 09:29:19;;;;;;;2.78;1.35;;;7.20;89.00;;;;;;5069750;28;20392;-59
2023/01/04 09:31:46;;;;;;;3.83;1.65;;;7.20;89.00;;;;;;5069954;28;20045;-59
2023/01/04 09:34:13;;;;;;;3.25;1.58;;;7.20;88.90;;;;;;5069669;28;20048;-59
2023/01/04 09:36:40;;;;;;;3.72;1.20;;;7.20;88.90;;;;;;5069882;28;20074;-59
2023/01/04 09:39:07;;;;;;;2.28;1.10;;;7.30;89.10;;;;;;5067468;28;20574;-58
2023/01/04 09:41:39;;;;;;;3.47;1.40;;;7.20;89.10;;;;;;5069310;28;20475;-59
2023/01/04 09:44:17;;;;;;;3.75;1.40;;;7.30;89.10;;;;;;5070043;28;20044;-58
2023/01/04 09:46:48;;;;;;;4.90;1.73;;;7.30;89.10;;;;;;5068392;28;20068;-56
2023/01/04 09:49:21;;;;;;;3.15;1.65;;;7.30;89.10;;;;;;5068173;28;20053;-56
2023/01/04 09:51:55;;;;;;;3.67;1.30;;;7.40;89.10;;;;;;5069627;28;20049;-59
2023/01/04 09:54:26;;;;;;;4.75;1.50;;;7.30;89.20;;;;;;5067657;28;20048;-58
2023/01/04 09:56:58;;;;;;;4.45;1.20;;;7.40;89.30;;;;;;5068892;28;20064;-59
2023/01/04 09:59:31;;;;;;;4.38;1.25;;;7.40;89.30;;;;;;5069603;28;20048;-58
2023/01/04 10:02:01;;;;;;;3.97;1.20;;;7.40;89.20;;;;;;5069966;28;20479;-58
2023/01/04 10:04:40;;;;;;;2.95;1.45;;;7.40;89.20;;;;;;5069187;28;20479;-58
2023/01/04 10:07:14;;;;;;;2.38;1.10;;;7.50;89.30;;;;;;5065742;28;20049;-58
2023/01/04 10:09:41;;;;;;;2.65;1.05;;;7.50;89.30;;;;;;5069032;28;20055;-57
2023/01/04 10:12:22;;;;;;;3.47;1.30;;;7.50;89.30;;;;;;5067352;28;20045;-59
2023/01/04 10:15:06;;;;;;;3.40;1.23;;;7.50;89.30;;;;;;5064276;28;20756;-59
2023/01/04 10:17:52;;;;;;;3.40;1.40;;;7.50;89.30;;;;;;5069346;28;20048;-59
2023/01/04 10:20:46;;;;;;;5.13;1.60;;;7.60;89.40;;;;;;5069286;28;20066;-59
2023/01/04 10:23:21;;;;;;;3.78;1.20;;;7.60;89.30;;;;;;5068052;28;20060;-58
2023/01/04 10:25:55;;;;;;;4.07;1.65;;;7.60;89.30;;;;;;5069399;28;20047;-58
2023/01/04 10:28:41;;;;;;;1.98;1.13;;;7.60;89.40;;;;;;5067747;28;20036;-59
2023/01/04 10:31:14;;;;;;;2.20;0.90;;;7.70;89.50;;;;;;5068209;28;20044;-59
2023/01/04 10:33:47;;;;;;;3.38;1.20;;;7.60;89.40;;;;;;5068736;28;20045;-58
2023/01/04 10:36:19;;;;;;;1.73;0.90;;;7.70;89.40;;;;;;5069263;28;20049;-59
2023/01/04 10:38:46;;;;;;;1.88;0.90;;;7.70;89.40;;;;;;5069353;28;20588;-59
2023/01/04 10:41:23;;;;;;;3.85;1.02;;;7.70;89.40;;;;;;5068355;28;20044;-59
2023/01/04 10:44:02;;;;;;;3.92;1.40;;;7.70;89.50;;;;;;5067310;28;20549;-60
2023/01/04 10:46:33;;;;;;;3.67;1.30;;;7.70;89.50;;;;;;5065581;28;20300;-58
2023/01/04 10:49:09;;;;;;;2.78;1.10;;;7.70;89.40;;;;;;5068360;28;20040;-57
2023/01/04 10:51:40;;;;;;;2.72;1.02;;;7.80;89.30;;;;;;5065586;28;20044;-58
2023/01/04 10:54:13;;;;;;;3.45;1.52;;;7.70;89.30;;;;;;5067727;28;20051;-59
2023/01/04 10:56:48;;;;;;;4.60;1.50;;;7.70;89.30;;;;;;5067767;28;20048;-59
2023/01/04 10:59:21;;;;;;;2.22;1.10;;;7.80;89.40;;;;;;5068416;28;20040;-59
2023/01/04 11:01:51;;;;;;;2.17;0.98;;;7.80;89.30;;;;;;5055884;28;20423;-58
2023/01/04 11:04:24;;;;;;;4.78;1.40;;;7.80;89.30;;;;;;5069249;28;20127;-58
2023/01/04 11:06:56;;;;;;;3.75;1.23;;;7.90;89.30;;;;;;5067419;28;20073;-60
2023/01/04 11:09:26;;;;;;;3.63;1.10;;;7.80;89.30;;;;;;5063633;28;20041;-59
2023/01/04 11:11:56;;;;;;;3.03;0.93;;;7.90;89.30;;;;;;5068175;28;20112;-59
2023/01/04 11:14:25;;;;;;;2.10;0.90;;;7.90;89.20;;;;;;5065876;28;20055;-58
2023/01/04 11:16:56;;;;;;;5.18;1.13;;;7.90;89.10;;;;;;5066349;28;20063;-60
2023/01/04 11:19:23;;;;;;;2.78;1.00;;;7.90;89.30;;;;;;5068949;28;20523;-59
2023/01/04 11:21:55;;;;;;;2.35;0.90;;;7.90;89.20;;;;;;5064787;28;20051;-58
2023/01/04 11:24:23;;;;;;;1.67;0.88;;;7.90;89.20;;;;;;5067952;28;20051;-58
2023/01/04 11:26:53;;;;;;;2.33;0.85;;;8.00;89.30;;;;;;5066913;28;20063;-59
2023/01/04 11:29:32;;;;;;;2.15;1.00;;;8.00;89.20;;;;;;5064348;28;20055;-57
2023/01/04 11:32:02;;;;;;;2.28;1.00;;;8.00;89.20;;;;;;5066460;28;20075;-60
2023/01/04 11:34:46;;;;;;;2.83;1.02;;;8.00;89.30;;;;;;5065671;28;20044;-59
2023/01/04 11:37:25;;;;;;;1.48;0.80;;;8.10;89.30;;;;;;5059986;28;20040;-59
2023/01/04 11:40:10;;;;;;;1.92;0.82;;;8.00;89.30;;;;;;5067410;28;20044;-58
2023/01/04 11:42:37;;;;;;;2.60;0.85;;;8.10;89.20;;;;;;5065612;28;20057;-59
2023/01/04 11:45:06;;;;;;;2.00;1.00;;;8.10;89.20;;;;;;5052910;28;20041;-58
2023/01/04 11:47:48;;;;;;;2.40;0.85;;;8.10;89.30;;;;;;5055142;28;20094;-59
2023/01/04 11:50:37;;;;;;;2.65;1.10;;;8.10;89.40;;;;;;5058575;28;20049;-59
2023/01/04 11:53:23;;;;;;;2.60;0.93;;;8.20;89.30;;;;;;5054201;28;20588;-59
2023/01/04 11:55:50;;;;;;;3.80;1.30;;;8.20;89.30;;;;;;5050885;28;20052;-60
2023/01/04 11:58:19;;;;;;;4.10;1.60;;;8.20;89.40;;;;;;5055863;28;20120;-58
2023/01/04 12:00:55;;;;;;;3.92;1.27;;;8.20;89.30;;;;;;5052907;28;20569;-58
2023/01/04 12:03:26;;;;;;;3.00;1.25;;;8.20;89.30;;;;;;5054739;28;20052;-59
2023/01/04 12:05:53;;;;;;;2.55;1.20;;;8.20;89.30;;;;;;5055432;28;20057;-57
2023/01/04 12:08:29;;;;;;;4.05;1.77;;;8.30;89.30;;;;;;5055144;28;20045;-57
2023/01/04 12:10:56;;;;;;;2.78;1.20;;;8.30;89.20;;;;;;5053449;28;20049;-60
2023/01/04 12:13:23;;;;;;;2.83;1.08;;;8.30;89.10;;;;;;5055119;28;20045;-58
2023/01/04 12:16:00;;;;;;;2.83;1.17;;;8.30;89.10;;;;;;5054376;28;20396;-59
2023/01/04 12:18:34;;;;;;;;;;;8.30;89.20;;;;;;5056309;28;20080;-59
2023/01/04 12:21:02;;;;;;;2.75;1.50;;;8.30;89.20;;;;;;5052405;28;20334;-62
2023/01/04 12:23:33;;;;;;;6.03;1.60;;;8.30;89.20;;;;;;5057003;28;20045;-62
2023/01/04 12:26:01;;;;;;;3.15;1.20;;;8.30;89.20;;;;;;5053011;28;20053;-60
2023/01/04 12:28:34;;;;;;;3.00;1.30;;;8.30;89.30;;;;;;5050616;28;20391;-59
2023/01/04 12:31:28;;;;;;;3.42;1.30;;;8.40;89.20;;;;;;5050587;28;20135;-60
2023/01/04 12:33:56;;;;;;;3.13;1.25;;;8.40;89.20;;;;;;5056834;28;20045;-61
2023/01/04 12:36:54;;;;;;;3.22;1.45;;;8.40;89.20;;;;;;5057895;28;20045;-61
2023/01/04 12:39:42;;;;;;;4.53;1.42;;;8.40;89.20;;;;;;5058099;28;20115;-62
2023/01/04 12:42:14;;;;;;;4.20;1.60;;;8.40;89.30;;;;;;5058483;28;20053;-61
2023/01/04 12:45:00;;;;;;;5.45;1.52;;;8.50;89.30;;;;;;5057431;28;20139;-62
2023/01/04 12:50:28;;;;;;;3.53;1.55;;;8.60;89.20;;;;;;5060821;28;20446;-61
2023/01/04 12:52:56;;;;;;;2.47;1.30;;;8.60;89.10;;;;;;5061329;28;20053;-62
2023/01/04 12:55:44;;;;;;;5.57;1.42;;;8.60;89.10;;;;;;5052955;28;20519;-62
2023/01/04 12:58:40;;;;;;;2.00;0.90;;;8.60;89.00;;;;;;5051516;28;20083;-62
2023/01/04 13:01:24;;;;;;;3.63;1.00;;;8.60;89.10;;;;;;5053160;28;20385;-61
2023/01/04 13:03:56;;;;;;;2.38;1.00;;;8.60;89.20;;;;;;5052409;28;20053;-62
2023/01/04 13:06:25;;;;;;;2.47;0.85;;;8.60;89.50;;;;;;5050775;28;20052;-62
2023/01/04 13:08:52;;;;;;;3.10;1.00;;;8.60;89.70;;;;;;5054342;28;20052;-62
2023/01/04 13:11:45;;;;;;;2.72;1.17;;;8.60;89.80;;;;;;5054172;28;20421;-62
2023/01/04 13:14:20;;;;;;;2.83;1.00;;;8.60;90.00;;;;;;5052142;28;20087;-60
2023/01/04 13:17:13;;;;;;;2.80;1.30;;;8.60;90.20;;;;;;5052279;28;20132;-62
2023/01/04 13:19:43;;;;;;;2.30;1.02;;;8.60;90.40;;;;;;5051881;28;20530;-61
2023/01/04 13:22:24;;;;;;;2.17;0.98;;;8.60;90.70;;;;;;5046382;28;20408;-61
2023/01/04 13:24:51;;;;;;;1.67;0.98;;;8.60;90.70;;;;;;5055584;28;20411;-62
2023/01/04 13:27:20;;;;;;;2.38;0.88;;;8.60;90.90;;;;;;5051755;28;20053;-62
2023/01/04 13:29:48;;;;;;;2.67;0.88;;;8.60;90.70;;;;;;5054786;28;20048;-62
2023/01/04 13:32:21;;;;;;;2.20;0.90;;;8.60;90.90;;;;;;5058273;28;20055;-62
2023/01/04 13:34:54;;;;;;;2.90;0.98;;;8.60;91.10;;;;;;5052989;28;20551;-61
2023/01/04 13:37:30;;;;;;;3.17;0.85;;;8.60;91.20;;;;;;5056504;28;20123;-62
2023/01/04 13:40:20;;;;;;;3.03;1.05;;;8.60;91.30;;;;;;5058131;28;20132;-62
2023/01/04 13:42:50;;;;;;;4.72;1.13;;;8.60;91.20;;;;;;5055271;28;20052;-61
2023/01/04 13:45:40;;;;;;;1.88;0.90;;;8.60;91.40;;;;;;5059383;28;20055;-62
2023/01/04 13:48:11;;;;;;;2.92;0.90;;;8.60;91.40;;;;;;5057136;28;20120;-61
2023/01/04 13:50:42;;;;;;;;;;;8.60;91.50;;;;;;5055125;28;20068;-61
2023/01/04 13:53:19;;;;;;;2.30;1.02;;;8.60;91.50;;;;;;5056037;28;19928;-60
2023/01/04 13:55:50;;;;;;;2.47;0.80;;;8.60;91.40;;;;;;5055732;28;20045;-61
2023/01/04 13:58:19;;;;;;;2.00;0.90;;;8.60;91.70;;;;;;5058793;28;20047;-62
2023/01/04 14:00:50;;;;;;;2.90;1.02;;;8.60;91.50;;;;;;5055975;28;20040;-66
2023/01/04 14:03:31;;;;;;;3.47;0.90;;;8.70;91.60;;;;;;5053156;28;20045;-67
2023/01/04 14:06:14;;;;;;;3.38;1.02;;;8.70;91.60;;;;;;5055065;28;20052;-60
2023/01/04 14:08:45;;;;;;;2.80;1.10;;;8.70;91.50;;;;;;5048044;28;20427;-61
2023/01/04 14:11:57;;;;;;;3.20;1.00;;;8.70;91.60;;;;;;5050069;28;20044;-61
2023/01/04 14:14:31;;;;;;;1.77;0.90;;;8.70;91.50;;;;;;5049919;28;20094;-61